sensor_id;sensor_type;location;lat;lon;timestamp;P1;durP1;ratioP1;P2;durP2;ratioP2
6432;SDS011;3249;42.690;23.260;2022-10-16T00:01:10;13.37;;;10.80;;
6432;SDS011;3249;42.690;23.260;2022-10-16T00:03:38;13.60;;;11.10;;
6432;SDS011;3249;42.690;23.260;2022-10-16T00:06:04;18.67;;;11.63;;
6432;SDS011;3249;42.690;23.260;2022-10-16T00:08:30;16.57;;;11.07;;
6432;SDS011;3249;42.690;23.260;2022-10-16T00:11:03;19.33;;;11.47;;
6432;SDS011;3249;42.690;23.260;2022-10-16T00:13:31;12.03;;;10.83;;
6432;SDS011;3249;42.690;23.260;2022-10-16T00:15:58;14.20;;;10.20;;
6432;SDS011;3249;42.690;23.260;2022-10-16T00:18:25;14.50;;;10.43;;
6432;SDS011;3249;42.690;23.260;2022-10-16T00:20:52;15.30;;;10.60;;
6432;SDS011;3249;42.690;23.260;2022-10-16T00:23:17;16.50;;;10.90;;
6432;SDS011;3249;42.690;23.260;2022-10-16T00:25:43;12.97;;;11.13;;
6432;SDS011;3249;42.690;23.260;2022-10-16T00:28:09;17.10;;;10.97;;
6432;SDS011;3249;42.690;23.260;2022-10-16T00:30:37;13.63;;;11.17;;
6432;SDS011;3249;42.690;23.260;2022-10-16T00:33:03;12.87;;;11.00;;
6432;SDS011;3249;42.690;23.260;2022-10-16T00:35:28;12.73;;;10.60;;
6432;SDS011;3249;42.690;23.260;2022-10-16T00:37:54;13.13;;;10.63;;
6432;SDS011;3249;42.690;23.260;2022-10-16T00:40:19;14.20;;;10.63;;
6432;SDS011;3249;42.690;23.260;2022-10-16T00:42:45;13.87;;;10.30;;
6432;SDS011;3249;42.690;23.260;2022-10-16T00:45:10;12.57;;;9.97;;
6432;SDS011;3249;42.690;23.260;2022-10-16T00:47:37;12.37;;;11.10;;
6432;SDS011;3249;42.690;23.260;2022-10-16T00:50:17;14.20;;;10.47;;
6432;SDS011;3249;42.690;23.260;2022-10-16T00:52:47;14.57;;;10.47;;
6432;SDS011;3249;42.690;23.260;2022-10-16T00:55:15;14.80;;;11.33;;
6432;SDS011;3249;42.690;23.260;2022-10-16T00:57:41;13.87;;;10.27;;
6432;SDS011;3249;42.690;23.260;2022-10-16T01:00:09;13.73;;;11.03;;
6432;SDS011;3249;42.690;23.260;2022-10-16T01:02:36;11.83;;;10.13;;
6432;SDS011;3249;42.690;23.260;2022-10-16T01:05:02;12.97;;;10.20;;
6432;SDS011;3249;42.690;23.260;2022-10-16T01:07:45;11.87;;;10.60;;
6432;SDS011;3249;42.690;23.260;2022-10-16T01:10:29;11.93;;;10.07;;
6432;SDS011;3249;42.690;23.260;2022-10-16T01:13:06;12.83;;;11.23;;
6432;SDS011;3249;42.690;23.260;2022-10-16T01:20:54;15.53;;;11.63;;
6432;SDS011;3249;42.690;23.260;2022-10-16T01:26:04;12.27;;;11.00;;
6432;SDS011;3249;42.690;23.260;2022-10-16T01:31:31;13.77;;;11.67;;
6432;SDS011;3249;42.690;23.260;2022-10-16T01:36:40;16.37;;;13.03;;
6432;SDS011;3249;42.690;23.260;2022-10-16T01:39:10;14.27;;;12.47;;
6432;SDS011;3249;42.690;23.260;2022-10-16T01:42:00;16.87;;;12.23;;
6432;SDS011;3249;42.690;23.260;2022-10-16T01:44:29;16.23;;;11.70;;
6432;SDS011;3249;42.690;23.260;2022-10-16T01:46:57;14.57;;;12.47;;
6432;SDS011;3249;42.690;23.260;2022-10-16T01:49:25;16.60;;;12.73;;
6432;SDS011;3249;42.690;23.260;2022-10-16T01:51:55;14.57;;;11.50;;
6432;SDS011;3249;42.690;23.260;2022-10-16T01:54:25;13.83;;;10.93;;
6432;SDS011;3249;42.690;23.260;2022-10-16T01:56:54;16.07;;;11.57;;
6432;SDS011;3249;42.690;23.260;2022-10-16T01:59:21;12.70;;;11.40;;
6432;SDS011;3249;42.690;23.260;2022-10-16T02:01:51;15.17;;;11.67;;
6432;SDS011;3249;42.690;23.260;2022-10-16T02:05:03;14.20;;;11.63;;
6432;SDS011;3249;42.690;23.260;2022-10-16T02:07:13;14.73;;;12.07;;
6432;SDS011;3249;42.690;23.260;2022-10-16T02:09:39;20.07;;;12.57;;
6432;SDS011;3249;42.690;23.260;2022-10-16T02:12:13;12.87;;;10.93;;
6432;SDS011;3249;42.690;23.260;2022-10-16T02:14:41;13.93;;;10.93;;
6432;SDS011;3249;42.690;23.260;2022-10-16T02:17:10;14.90;;;11.40;;
6432;SDS011;3249;42.690;23.260;2022-10-16T02:19:37;14.27;;;11.03;;
6432;SDS011;3249;42.690;23.260;2022-10-16T02:22:03;13.33;;;11.30;;
6432;SDS011;3249;42.690;23.260;2022-10-16T02:24:46;12.30;;;11.10;;
6432;SDS011;3249;42.690;23.260;2022-10-16T02:30:02;13.97;;;12.40;;
6432;SDS011;3249;42.690;23.260;2022-10-16T02:32:34;12.57;;;11.27;;
6432;SDS011;3249;42.690;23.260;2022-10-16T02:35:02;16.77;;;12.27;;
6432;SDS011;3249;42.690;23.260;2022-10-16T02:37:30;14.90;;;12.07;;
6432;SDS011;3249;42.690;23.260;2022-10-16T02:39:57;16.17;;;12.80;;
6432;SDS011;3249;42.690;23.260;2022-10-16T02:42:27;15.13;;;12.40;;
6432;SDS011;3249;42.690;23.260;2022-10-16T02:44:54;15.53;;;11.90;;
6432;SDS011;3249;42.690;23.260;2022-10-16T02:47:20;13.73;;;10.87;;
6432;SDS011;3249;42.690;23.260;2022-10-16T02:49:45;12.63;;;11.33;;
6432;SDS011;3249;42.690;23.260;2022-10-16T02:52:10;18.13;;;13.50;;
6432;SDS011;3249;42.690;23.260;2022-10-16T02:54:36;20.47;;;14.30;;
6432;SDS011;3249;42.690;23.260;2022-10-16T02:57:01;15.73;;;14.03;;
6432;SDS011;3249;42.690;23.260;2022-10-16T02:59:27;21.77;;;13.03;;
6432;SDS011;3249;42.690;23.260;2022-10-16T03:01:52;15.47;;;13.37;;
6432;SDS011;3249;42.690;23.260;2022-10-16T03:04:18;15.00;;;12.40;;
6432;SDS011;3249;42.690;23.260;2022-10-16T03:06:43;17.23;;;12.80;;
6432;SDS011;3249;42.690;23.260;2022-10-16T03:09:08;15.03;;;12.50;;
6432;SDS011;3249;42.690;23.260;2022-10-16T03:11:34;13.13;;;11.83;;
6432;SDS011;3249;42.690;23.260;2022-10-16T03:13:59;14.47;;;12.33;;
6432;SDS011;3249;42.690;23.260;2022-10-16T03:16:25;13.27;;;11.87;;
6432;SDS011;3249;42.690;23.260;2022-10-16T03:18:50;19.20;;;13.00;;
6432;SDS011;3249;42.690;23.260;2022-10-16T03:21:16;16.83;;;13.07;;
6432;SDS011;3249;42.690;23.260;2022-10-16T03:23:41;15.87;;;12.67;;
6432;SDS011;3249;42.690;23.260;2022-10-16T03:26:07;17.17;;;13.10;;
6432;SDS011;3249;42.690;23.260;2022-10-16T03:28:32;16.53;;;13.43;;
6432;SDS011;3249;42.690;23.260;2022-10-16T03:30:58;13.63;;;12.27;;
6432;SDS011;3249;42.690;23.260;2022-10-16T03:33:23;15.30;;;12.40;;
6432;SDS011;3249;42.690;23.260;2022-10-16T03:35:52;17.13;;;12.70;;
6432;SDS011;3249;42.690;23.260;2022-10-16T03:38:19;16.70;;;12.80;;
6432;SDS011;3249;42.690;23.260;2022-10-16T03:40:45;13.70;;;12.13;;
6432;SDS011;3249;42.690;23.260;2022-10-16T03:43:10;18.03;;;11.97;;
6432;SDS011;3249;42.690;23.260;2022-10-16T03:45:35;18.40;;;14.03;;
6432;SDS011;3249;42.690;23.260;2022-10-16T03:48:01;16.67;;;12.77;;
6432;SDS011;3249;42.690;23.260;2022-10-16T03:50:28;19.63;;;12.13;;
6432;SDS011;3249;42.690;23.260;2022-10-16T03:52:54;16.63;;;12.00;;
6432;SDS011;3249;42.690;23.260;2022-10-16T03:55:19;19.07;;;12.97;;
6432;SDS011;3249;42.690;23.260;2022-10-16T03:57:45;17.70;;;13.13;;
6432;SDS011;3249;42.690;23.260;2022-10-16T04:00:10;17.07;;;12.20;;
6432;SDS011;3249;42.690;23.260;2022-10-16T04:02:36;14.50;;;13.03;;
6432;SDS011;3249;42.690;23.260;2022-10-16T04:05:02;14.90;;;11.80;;
6432;SDS011;3249;42.690;23.260;2022-10-16T04:07:27;20.73;;;12.53;;
6432;SDS011;3249;42.690;23.260;2022-10-16T04:09:53;15.40;;;11.97;;
6432;SDS011;3249;42.690;23.260;2022-10-16T04:12:19;17.47;;;13.17;;
6432;SDS011;3249;42.690;23.260;2022-10-16T04:14:44;21.67;;;13.30;;
6432;SDS011;3249;42.690;23.260;2022-10-16T04:17:10;18.83;;;13.10;;
6432;SDS011;3249;42.690;23.260;2022-10-16T04:19:35;13.63;;;12.23;;
6432;SDS011;3249;42.690;23.260;2022-10-16T04:22:01;15.97;;;11.80;;
6432;SDS011;3249;42.690;23.260;2022-10-16T04:24:27;22.17;;;13.53;;
6432;SDS011;3249;42.690;23.260;2022-10-16T04:26:53;21.70;;;12.90;;
6432;SDS011;3249;42.690;23.260;2022-10-16T04:29:18;17.90;;;12.50;;
6432;SDS011;3249;42.690;23.260;2022-10-16T04:31:43;17.50;;;13.07;;
6432;SDS011;3249;42.690;23.260;2022-10-16T04:34:09;16.37;;;13.50;;
6432;SDS011;3249;42.690;23.260;2022-10-16T04:36:34;18.03;;;13.67;;
6432;SDS011;3249;42.690;23.260;2022-10-16T04:39:00;17.70;;;13.57;;
6432;SDS011;3249;42.690;23.260;2022-10-16T04:41:25;18.23;;;12.80;;
6432;SDS011;3249;42.690;23.260;2022-10-16T04:43:50;15.13;;;12.70;;
6432;SDS011;3249;42.690;23.260;2022-10-16T04:46:16;17.37;;;14.10;;
6432;SDS011;3249;42.690;23.260;2022-10-16T04:48:41;16.47;;;13.00;;
6432;SDS011;3249;42.690;23.260;2022-10-16T04:51:07;16.97;;;13.50;;
6432;SDS011;3249;42.690;23.260;2022-10-16T04:53:32;18.37;;;13.23;;
6432;SDS011;3249;42.690;23.260;2022-10-16T04:55:58;15.17;;;13.10;;
6432;SDS011;3249;42.690;23.260;2022-10-16T04:58:24;24.40;;;18.60;;
6432;SDS011;3249;42.690;23.260;2022-10-16T05:00:49;24.87;;;18.77;;
6432;SDS011;3249;42.690;23.260;2022-10-16T05:03:14;23.27;;;15.97;;
6432;SDS011;3249;42.690;23.260;2022-10-16T05:05:43;29.07;;;17.37;;
6432;SDS011;3249;42.690;23.260;2022-10-16T05:08:12;24.97;;;17.50;;
6432;SDS011;3249;42.690;23.260;2022-10-16T05:10:38;27.80;;;19.53;;
6432;SDS011;3249;42.690;23.260;2022-10-16T05:13:07;34.50;;;21.20;;
6432;SDS011;3249;42.690;23.260;2022-10-16T05:15:32;29.13;;;19.77;;
6432;SDS011;3249;42.690;23.260;2022-10-16T05:17:58;27.23;;;17.70;;
6432;SDS011;3249;42.690;23.260;2022-10-16T05:20:23;26.63;;;18.87;;
6432;SDS011;3249;42.690;23.260;2022-10-16T05:22:49;25.87;;;18.67;;
6432;SDS011;3249;42.690;23.260;2022-10-16T05:25:14;24.87;;;16.80;;
6432;SDS011;3249;42.690;23.260;2022-10-16T05:27:40;25.93;;;16.50;;
6432;SDS011;3249;42.690;23.260;2022-10-16T05:30:05;23.47;;;16.80;;
6432;SDS011;3249;42.690;23.260;2022-10-16T05:32:32;20.63;;;15.33;;
6432;SDS011;3249;42.690;23.260;2022-10-16T05:34:58;22.80;;;14.87;;
6432;SDS011;3249;42.690;23.260;2022-10-16T05:37:25;19.37;;;14.63;;
6432;SDS011;3249;42.690;23.260;2022-10-16T05:39:50;19.97;;;14.40;;
6432;SDS011;3249;42.690;23.260;2022-10-16T05:42:16;19.93;;;14.33;;
6432;SDS011;3249;42.690;23.260;2022-10-16T05:44:41;21.73;;;14.80;;
6432;SDS011;3249;42.690;23.260;2022-10-16T05:47:07;20.80;;;15.83;;
6432;SDS011;3249;42.690;23.260;2022-10-16T05:49:32;19.93;;;15.93;;
6432;SDS011;3249;42.690;23.260;2022-10-16T05:51:58;23.13;;;16.13;;
6432;SDS011;3249;42.690;23.260;2022-10-16T05:54:23;22.40;;;15.70;;
6432;SDS011;3249;42.690;23.260;2022-10-16T05:56:49;33.07;;;25.17;;
6432;SDS011;3249;42.690;23.260;2022-10-16T05:59:14;26.40;;;20.73;;
6432;SDS011;3249;42.690;23.260;2022-10-16T06:01:39;44.30;;;30.17;;
6432;SDS011;3249;42.690;23.260;2022-10-16T06:04:05;52.83;;;32.50;;
6432;SDS011;3249;42.690;23.260;2022-10-16T06:06:30;49.37;;;34.17;;
6432;SDS011;3249;42.690;23.260;2022-10-16T06:08:56;55.07;;;39.80;;
6432;SDS011;3249;42.690;23.260;2022-10-16T06:11:23;58.57;;;42.70;;
6432;SDS011;3249;42.690;23.260;2022-10-16T06:13:50;46.70;;;34.97;;
6432;SDS011;3249;42.690;23.260;2022-10-16T06:16:17;55.30;;;41.53;;
6432;SDS011;3249;42.690;23.260;2022-10-16T06:18:42;58.53;;;43.77;;
6432;SDS011;3249;42.690;23.260;2022-10-16T06:21:09;64.07;;;48.70;;
6432;SDS011;3249;42.690;23.260;2022-10-16T06:23:45;54.00;;;40.27;;
6432;SDS011;3249;42.690;23.260;2022-10-16T06:26:12;46.53;;;35.80;;
6432;SDS011;3249;42.690;23.260;2022-10-16T06:28:39;37.83;;;31.53;;
6432;SDS011;3249;42.690;23.260;2022-10-16T06:31:08;39.17;;;30.93;;
6432;SDS011;3249;42.690;23.260;2022-10-16T06:33:36;40.33;;;30.67;;
6432;SDS011;3249;42.690;23.260;2022-10-16T06:36:06;45.33;;;29.80;;
6432;SDS011;3249;42.690;23.260;2022-10-16T06:38:33;37.70;;;29.20;;
6432;SDS011;3249;42.690;23.260;2022-10-16T06:40:59;36.57;;;26.27;;
6432;SDS011;3249;42.690;23.260;2022-10-16T06:43:25;25.17;;;22.40;;
6432;SDS011;3249;42.690;23.260;2022-10-16T06:45:52;17.00;;;15.20;;
6432;SDS011;3249;42.690;23.260;2022-10-16T06:48:19;19.13;;;15.57;;
6432;SDS011;3249;42.690;23.260;2022-10-16T06:50:54;19.77;;;16.80;;
6432;SDS011;3249;42.690;23.260;2022-10-16T06:53:21;21.93;;;16.63;;
6432;SDS011;3249;42.690;23.260;2022-10-16T06:55:46;29.87;;;23.47;;
6432;SDS011;3249;42.690;23.260;2022-10-16T06:58:11;36.83;;;25.73;;
6432;SDS011;3249;42.690;23.260;2022-10-16T07:00:37;33.53;;;28.37;;
6432;SDS011;3249;42.690;23.260;2022-10-16T07:03:02;38.97;;;27.07;;
6432;SDS011;3249;42.690;23.260;2022-10-16T07:05:28;49.87;;;39.70;;
6432;SDS011;3249;42.690;23.260;2022-10-16T07:07:53;47.43;;;37.67;;
6432;SDS011;3249;42.690;23.260;2022-10-16T07:10:19;75.80;;;55.53;;
6432;SDS011;3249;42.690;23.260;2022-10-16T07:12:44;79.03;;;63.50;;
6432;SDS011;3249;42.690;23.260;2022-10-16T07:15:10;79.17;;;63.57;;
6432;SDS011;3249;42.690;23.260;2022-10-16T07:17:35;26.30;;;22.37;;
6432;SDS011;3249;42.690;23.260;2022-10-16T07:20:01;23.50;;;19.50;;
6432;SDS011;3249;42.690;23.260;2022-10-16T07:22:28;23.13;;;17.67;;
6432;SDS011;3249;42.690;23.260;2022-10-16T07:24:53;19.73;;;16.70;;
6432;SDS011;3249;42.690;23.260;2022-10-16T07:27:19;23.07;;;18.33;;
6432;SDS011;3249;42.690;23.260;2022-10-16T07:29:47;21.60;;;18.37;;
6432;SDS011;3249;42.690;23.260;2022-10-16T07:32:12;21.57;;;19.37;;
6432;SDS011;3249;42.690;23.260;2022-10-16T07:34:38;24.40;;;18.63;;
6432;SDS011;3249;42.690;23.260;2022-10-16T07:37:03;25.70;;;21.17;;
6432;SDS011;3249;42.690;23.260;2022-10-16T07:39:29;22.47;;;19.43;;
6432;SDS011;3249;42.690;23.260;2022-10-16T07:41:54;21.53;;;17.63;;
6432;SDS011;3249;42.690;23.260;2022-10-16T07:44:20;16.43;;;13.90;;
6432;SDS011;3249;42.690;23.260;2022-10-16T07:46:45;18.13;;;15.87;;
6432;SDS011;3249;42.690;23.260;2022-10-16T07:49:11;15.57;;;13.60;;
6432;SDS011;3249;42.690;23.260;2022-10-16T07:51:36;17.60;;;14.73;;
6432;SDS011;3249;42.690;23.260;2022-10-16T07:54:03;15.80;;;13.90;;
6432;SDS011;3249;42.690;23.260;2022-10-16T07:56:30;19.67;;;14.80;;
6432;SDS011;3249;42.690;23.260;2022-10-16T07:58:57;21.20;;;15.13;;
6432;SDS011;3249;42.690;23.260;2022-10-16T08:01:22;20.10;;;15.37;;
6432;SDS011;3249;42.690;23.260;2022-10-16T08:03:49;21.30;;;15.93;;
6432;SDS011;3249;42.690;23.260;2022-10-16T08:06:15;22.00;;;15.97;;
6432;SDS011;3249;42.690;23.260;2022-10-16T08:08:42;17.07;;;15.27;;
6432;SDS011;3249;42.690;23.260;2022-10-16T08:11:07;20.33;;;15.30;;
6432;SDS011;3249;42.690;23.260;2022-10-16T08:13:33;23.00;;;14.93;;
6432;SDS011;3249;42.690;23.260;2022-10-16T08:15:59;19.30;;;13.93;;
6432;SDS011;3249;42.690;23.260;2022-10-16T08:18:24;17.10;;;14.23;;
6432;SDS011;3249;42.690;23.260;2022-10-16T08:20:57;19.20;;;15.20;;
6432;SDS011;3249;42.690;23.260;2022-10-16T08:23:24;15.77;;;13.57;;
6432;SDS011;3249;42.690;23.260;2022-10-16T08:25:50;15.17;;;13.20;;
6432;SDS011;3249;42.690;23.260;2022-10-16T08:28:18;15.33;;;13.73;;
6432;SDS011;3249;42.690;23.260;2022-10-16T08:30:43;17.30;;;15.27;;
6432;SDS011;3249;42.690;23.260;2022-10-16T08:33:09;14.73;;;12.27;;
6432;SDS011;3249;42.690;23.260;2022-10-16T08:35:34;14.10;;;12.63;;
6432;SDS011;3249;42.690;23.260;2022-10-16T08:38:00;15.13;;;11.83;;
6432;SDS011;3249;42.690;23.260;2022-10-16T08:40:28;14.73;;;12.90;;
6432;SDS011;3249;42.690;23.260;2022-10-16T08:51:26;9.23;;;8.43;;
6432;SDS011;3249;42.690;23.260;2022-10-16T08:53:58;8.57;;;7.77;;
6432;SDS011;3249;42.690;23.260;2022-10-16T08:56:26;9.37;;;8.43;;
6432;SDS011;3249;42.690;23.260;2022-10-16T08:58:52;9.73;;;8.17;;
6432;SDS011;3249;42.690;23.260;2022-10-16T09:01:20;9.87;;;8.03;;
6432;SDS011;3249;42.690;23.260;2022-10-16T09:12:24;7.27;;;6.53;;
6432;SDS011;3249;42.690;23.260;2022-10-16T09:20:32;7.13;;;6.53;;
6432;SDS011;3249;42.690;23.260;2022-10-16T09:25:29;8.63;;;6.60;;
6432;SDS011;3249;42.690;23.260;2022-10-16T09:27:56;6.17;;;5.47;;
6432;SDS011;3249;42.690;23.260;2022-10-16T09:30:22;5.87;;;5.43;;
6432;SDS011;3249;42.690;23.260;2022-10-16T09:32:51;6.57;;;5.97;;
6432;SDS011;3249;42.690;23.260;2022-10-16T09:35:22;6.37;;;5.80;;
6432;SDS011;3249;42.690;23.260;2022-10-16T09:37:56;7.10;;;6.50;;
6432;SDS011;3249;42.690;23.260;2022-10-16T09:43:01;8.40;;;6.00;;
6432;SDS011;3249;42.690;23.260;2022-10-16T09:45:31;8.80;;;5.97;;
6432;SDS011;3249;42.690;23.260;2022-10-16T09:47:57;5.87;;;4.77;;
6432;SDS011;3249;42.690;23.260;2022-10-16T09:50:29;5.17;;;4.77;;
6432;SDS011;3249;42.690;23.260;2022-10-16T09:53:14;8.10;;;5.80;;
6432;SDS011;3249;42.690;23.260;2022-10-16T09:55:53;6.07;;;5.10;;
6432;SDS011;3249;42.690;23.260;2022-10-16T09:58:34;5.47;;;5.07;;
6432;SDS011;3249;42.690;23.260;2022-10-16T10:00:59;5.57;;;4.60;;
6432;SDS011;3249;42.690;23.260;2022-10-16T10:03:38;9.17;;;6.33;;
6432;SDS011;3249;42.690;23.260;2022-10-16T10:06:22;8.13;;;4.90;;
6432;SDS011;3249;42.690;23.260;2022-10-16T10:14:49;6.03;;;5.43;;
6432;SDS011;3249;42.690;23.260;2022-10-16T10:17:06;6.07;;;5.30;;
6432;SDS011;3249;42.690;23.260;2022-10-16T10:22:17;5.77;;;5.07;;
6432;SDS011;3249;42.690;23.260;2022-10-16T10:24:56;7.00;;;6.40;;
6432;SDS011;3249;42.690;23.260;2022-10-16T10:36:34;6.77;;;4.80;;
6432;SDS011;3249;42.690;23.260;2022-10-16T10:39:11;6.27;;;5.67;;
6432;SDS011;3249;42.690;23.260;2022-10-16T10:55:16;5.17;;;4.67;;
6432;SDS011;3249;42.690;23.260;2022-10-16T11:06:04;6.00;;;4.57;;
6432;SDS011;3249;42.690;23.260;2022-10-16T11:14:30;5.20;;;4.80;;
6432;SDS011;3249;42.690;23.260;2022-10-16T11:17:23;8.17;;;6.60;;
6432;SDS011;3249;42.690;23.260;2022-10-16T11:20:11;7.70;;;5.10;;
6432;SDS011;3249;42.690;23.260;2022-10-16T11:22:51;6.00;;;4.50;;
6432;SDS011;3249;42.690;23.260;2022-10-16T11:25:26;6.23;;;4.13;;
6432;SDS011;3249;42.690;23.260;2022-10-16T11:30:44;4.90;;;4.43;;
6432;SDS011;3249;42.690;23.260;2022-10-16T11:35:44;8.37;;;7.47;;
6432;SDS011;3249;42.690;23.260;2022-10-16T11:38:15;34.73;;;26.90;;
6432;SDS011;3249;42.690;23.260;2022-10-16T11:40:45;9.50;;;7.53;;
6432;SDS011;3249;42.690;23.260;2022-10-16T11:43:25;5.67;;;5.17;;
6432;SDS011;3249;42.690;23.260;2022-10-16T11:45:57;5.67;;;5.13;;
6432;SDS011;3249;42.690;23.260;2022-10-16T11:48:43;5.00;;;4.70;;
6432;SDS011;3249;42.690;23.260;2022-10-16T11:51:41;4.40;;;4.07;;
6432;SDS011;3249;42.690;23.260;2022-10-16T11:57:03;4.50;;;4.17;;
6432;SDS011;3249;42.690;23.260;2022-10-16T11:59:49;4.70;;;4.30;;
6432;SDS011;3249;42.690;23.260;2022-10-16T12:07:51;5.20;;;4.70;;
6432;SDS011;3249;42.690;23.260;2022-10-16T12:10:39;6.00;;;5.50;;
6432;SDS011;3249;42.690;23.260;2022-10-16T12:18:47;5.63;;;3.53;;
6432;SDS011;3249;42.690;23.260;2022-10-16T12:21:14;4.53;;;4.07;;
6432;SDS011;3249;42.690;23.260;2022-10-16T12:23:51;5.60;;;3.97;;
6432;SDS011;3249;42.690;23.260;2022-10-16T12:26:29;7.27;;;4.30;;
6432;SDS011;3249;42.690;23.260;2022-10-16T12:29:08;4.20;;;3.90;;
6432;SDS011;3249;42.690;23.260;2022-10-16T12:31:43;6.87;;;5.57;;
6432;SDS011;3249;42.690;23.260;2022-10-16T12:34:20;4.57;;;4.17;;
6432;SDS011;3249;42.690;23.260;2022-10-16T12:36:52;6.33;;;4.27;;
6432;SDS011;3249;42.690;23.260;2022-10-16T12:39:22;5.00;;;4.47;;
6432;SDS011;3249;42.690;23.260;2022-10-16T12:42:17;7.30;;;6.63;;
6432;SDS011;3249;42.690;23.260;2022-10-16T12:44:55;5.83;;;5.30;;
6432;SDS011;3249;42.690;23.260;2022-10-16T12:47:35;7.80;;;6.47;;
6432;SDS011;3249;42.690;23.260;2022-10-16T12:50:02;5.40;;;5.00;;
6432;SDS011;3249;42.690;23.260;2022-10-16T12:55:01;4.57;;;4.17;;
6432;SDS011;3249;42.690;23.260;2022-10-16T13:00:18;9.00;;;8.37;;
6432;SDS011;3249;42.690;23.260;2022-10-16T13:11:07;5.40;;;4.93;;
6432;SDS011;3249;42.690;23.260;2022-10-16T13:13:53;6.20;;;5.60;;
6432;SDS011;3249;42.690;23.260;2022-10-16T13:30:11;5.83;;;5.37;;
6432;SDS011;3249;42.690;23.260;2022-10-16T13:32:47;5.60;;;5.10;;
6432;SDS011;3249;42.690;23.260;2022-10-16T13:35:29;6.43;;;5.00;;
6432;SDS011;3249;42.690;23.260;2022-10-16T13:38:12;5.47;;;5.03;;
6432;SDS011;3249;42.690;23.260;2022-10-16T13:40:49;3.67;;;3.37;;
6432;SDS011;3249;42.690;23.260;2022-10-16T13:43:16;4.03;;;3.60;;
6432;SDS011;3249;42.690;23.260;2022-10-16T13:45:52;4.80;;;4.40;;
6432;SDS011;3249;42.690;23.260;2022-10-16T13:48:21;4.90;;;4.50;;
6432;SDS011;3249;42.690;23.260;2022-10-16T13:50:57;7.00;;;4.20;;
6432;SDS011;3249;42.690;23.260;2022-10-16T13:53:24;4.60;;;4.30;;
6432;SDS011;3249;42.690;23.260;2022-10-16T13:55:49;5.70;;;4.50;;
6432;SDS011;3249;42.690;23.260;2022-10-16T13:58:15;4.83;;;4.43;;
6432;SDS011;3249;42.690;23.260;2022-10-16T14:00:41;5.47;;;5.03;;
6432;SDS011;3249;42.690;23.260;2022-10-16T14:03:19;8.00;;;4.27;;
6432;SDS011;3249;42.690;23.260;2022-10-16T14:05:49;4.87;;;4.50;;
6432;SDS011;3249;42.690;23.260;2022-10-16T14:08:17;4.50;;;4.17;;
6432;SDS011;3249;42.690;23.260;2022-10-16T14:10:42;4.37;;;4.07;;
6432;SDS011;3249;42.690;23.260;2022-10-16T14:13:15;8.23;;;4.80;;
6432;SDS011;3249;42.690;23.260;2022-10-16T14:15:46;4.63;;;4.33;;
6432;SDS011;3249;42.690;23.260;2022-10-16T14:18:16;6.77;;;4.67;;
6432;SDS011;3249;42.690;23.260;2022-10-16T14:20:45;5.63;;;4.30;;
6432;SDS011;3249;42.690;23.260;2022-10-16T14:23:31;7.33;;;4.57;;
6432;SDS011;3249;42.690;23.260;2022-10-16T14:28:35;5.80;;;4.70;;
6432;SDS011;3249;42.690;23.260;2022-10-16T14:31:02;8.23;;;6.30;;
6432;SDS011;3249;42.690;23.260;2022-10-16T14:33:42;8.10;;;7.10;;
6432;SDS011;3249;42.690;23.260;2022-10-16T14:36:12;11.30;;;6.43;;
6432;SDS011;3249;42.690;23.260;2022-10-16T14:38:43;6.47;;;5.30;;
6432;SDS011;3249;42.690;23.260;2022-10-16T14:41:15;7.00;;;5.33;;
6432;SDS011;3249;42.690;23.260;2022-10-16T14:43:49;5.40;;;4.50;;
6432;SDS011;3249;42.690;23.260;2022-10-16T14:46:17;8.13;;;5.20;;
6432;SDS011;3249;42.690;23.260;2022-10-16T14:48:51;5.53;;;4.63;;
6432;SDS011;3249;42.690;23.260;2022-10-16T14:51:21;5.27;;;4.77;;
6432;SDS011;3249;42.690;23.260;2022-10-16T14:53:49;5.27;;;4.87;;
6432;SDS011;3249;42.690;23.260;2022-10-16T14:56:18;13.30;;;8.20;;
6432;SDS011;3249;42.690;23.260;2022-10-16T14:58:46;13.00;;;8.13;;
6432;SDS011;3249;42.690;23.260;2022-10-16T15:01:11;8.47;;;7.67;;
6432;SDS011;3249;42.690;23.260;2022-10-16T15:03:37;14.70;;;10.10;;
6432;SDS011;3249;42.690;23.260;2022-10-16T15:06:03;9.57;;;7.17;;
6432;SDS011;3249;42.690;23.260;2022-10-16T15:08:36;11.07;;;8.60;;
6432;SDS011;3249;42.690;23.260;2022-10-16T15:11:01;8.43;;;7.47;;
6432;SDS011;3249;42.690;23.260;2022-10-16T15:13:27;5.60;;;5.20;;
6432;SDS011;3249;42.690;23.260;2022-10-16T15:15:52;18.27;;;12.53;;
6432;SDS011;3249;42.690;23.260;2022-10-16T15:18:18;10.43;;;9.00;;
6432;SDS011;3249;42.690;23.260;2022-10-16T15:20:50;6.93;;;6.33;;
6432;SDS011;3249;42.690;23.260;2022-10-16T15:23:18;7.93;;;7.13;;
6432;SDS011;3249;42.690;23.260;2022-10-16T15:25:46;9.73;;;8.20;;
6432;SDS011;3249;42.690;23.260;2022-10-16T15:28:14;7.60;;;6.87;;
6432;SDS011;3249;42.690;23.260;2022-10-16T15:30:40;6.67;;;6.03;;
6432;SDS011;3249;42.690;23.260;2022-10-16T15:33:10;6.27;;;5.77;;
6432;SDS011;3249;42.690;23.260;2022-10-16T15:35:39;14.50;;;6.70;;
6432;SDS011;3249;42.690;23.260;2022-10-16T15:38:04;7.47;;;6.67;;
6432;SDS011;3249;42.690;23.260;2022-10-16T15:40:30;6.90;;;6.30;;
6432;SDS011;3249;42.690;23.260;2022-10-16T15:42:55;6.57;;;5.90;;
6432;SDS011;3249;42.690;23.260;2022-10-16T15:45:21;5.67;;;5.17;;
6432;SDS011;3249;42.690;23.260;2022-10-16T15:47:46;7.07;;;6.37;;
6432;SDS011;3249;42.690;23.260;2022-10-16T15:50:12;6.80;;;5.97;;
6432;SDS011;3249;42.690;23.260;2022-10-16T15:52:39;8.70;;;7.87;;
6432;SDS011;3249;42.690;23.260;2022-10-16T15:55:09;19.40;;;16.27;;
6432;SDS011;3249;42.690;23.260;2022-10-16T15:57:35;23.27;;;19.70;;
6432;SDS011;3249;42.690;23.260;2022-10-16T16:00:04;15.47;;;13.87;;
6432;SDS011;3249;42.690;23.260;2022-10-16T16:02:32;23.20;;;19.80;;
6432;SDS011;3249;42.690;23.260;2022-10-16T16:04:57;17.80;;;15.67;;
6432;SDS011;3249;42.690;23.260;2022-10-16T16:07:22;23.87;;;18.30;;
6432;SDS011;3249;42.690;23.260;2022-10-16T16:09:48;22.37;;;18.97;;
6432;SDS011;3249;42.690;23.260;2022-10-16T16:12:14;26.87;;;18.30;;
6432;SDS011;3249;42.690;23.260;2022-10-16T16:14:39;24.97;;;19.37;;
6432;SDS011;3249;42.690;23.260;2022-10-16T16:17:04;16.43;;;13.77;;
6432;SDS011;3249;42.690;23.260;2022-10-16T16:19:30;28.33;;;24.67;;
6432;SDS011;3249;42.690;23.260;2022-10-16T16:21:56;11.13;;;9.13;;
6432;SDS011;3249;42.690;23.260;2022-10-16T16:24:22;22.47;;;15.33;;
6432;SDS011;3249;42.690;23.260;2022-10-16T16:26:47;22.17;;;13.57;;
6432;SDS011;3249;42.690;23.260;2022-10-16T16:29:13;20.70;;;17.00;;
6432;SDS011;3249;42.690;23.260;2022-10-16T16:31:40;13.90;;;12.43;;
6432;SDS011;3249;42.690;23.260;2022-10-16T16:34:06;30.70;;;22.33;;
6432;SDS011;3249;42.690;23.260;2022-10-16T16:36:32;24.93;;;18.00;;
6432;SDS011;3249;42.690;23.260;2022-10-16T16:38:58;39.70;;;24.40;;
6432;SDS011;3249;42.690;23.260;2022-10-16T16:41:25;41.90;;;22.57;;
6432;SDS011;3249;42.690;23.260;2022-10-16T16:43:52;55.47;;;28.30;;
6432;SDS011;3249;42.690;23.260;2022-10-16T16:46:19;51.93;;;29.43;;
6432;SDS011;3249;42.690;23.260;2022-10-16T16:48:45;60.57;;;31.40;;
6432;SDS011;3249;42.690;23.260;2022-10-16T16:51:12;120.60;;;65.03;;
6432;SDS011;3249;42.690;23.260;2022-10-16T16:53:45;63.20;;;37.67;;
6432;SDS011;3249;42.690;23.260;2022-10-16T16:56:12;41.97;;;27.47;;
6432;SDS011;3249;42.690;23.260;2022-10-16T16:58:38;37.77;;;27.20;;
6432;SDS011;3249;42.690;23.260;2022-10-16T17:01:04;45.23;;;26.17;;
6432;SDS011;3249;42.690;23.260;2022-10-16T17:03:31;43.30;;;28.30;;
6432;SDS011;3249;42.690;23.260;2022-10-16T17:06:01;41.47;;;27.43;;
6432;SDS011;3249;42.690;23.260;2022-10-16T17:08:30;45.17;;;28.33;;
6432;SDS011;3249;42.690;23.260;2022-10-16T17:10:56;54.00;;;37.43;;